Monroe, NC

4:22 PM EDT on September 04, 2015 (GMT -0400)
Monroe | | Change Station
CLOSE
Current Station
Airport
Location: Monroe,
Elevation: 679 ft
Nearby Weather Stations

Elev 679 ft 35.01 °N, 80.62 °W | Updated 29 minutes ago

Partly Cloudy
Partly Cloudy
89 °F
Feels Like 93 °F
N
6
Wind Variable Wind from ENE

Today
High -- | Low -- °F
--% Chance of Precip.
Yesterday
High -- | Low -- °F
Precip. -- in
6:56 AM 7:45 PM
Waning Gibbous, 56% visible
Pressure 29.95 in
Visibility 10.0 miles
Clouds Clear
Heat Index 93 °F
Dew Point 68 °F
Humidity 50%
Rainfall 0.00 in
Snow Depth Not available.
UV 6 out of 12
Pollen 9.50 out of 12
Air Quality Not available.
Flu Activity Not available.
METAR KEQY 041953Z AUTO 07005KT 10SM CLR 32/20 A2996 RMK AO2 LTG DSNT W-N SLP141 T03170200 $
Pressure 29.95 in
Visibility 10.0 miles
Clouds Clear
Heat Index 93 °F
Dew Point 68 °F
Humidity 50%
Rainfall 0.00 in
Snow Depth Not available.
UV 6 out of 12
Pollen 9.50 out of 12
Air Quality Not available.
Flu Activity Not available.
METAR KEQY 041953Z AUTO 07005KT 10SM CLR 32/20 A2996 RMK AO2 LTG DSNT W-N SLP141 T03170200 $

10-Day Weather Forecast

×

Almanac

Astronomy

Sep. 04, 2015 Rise Set
Actual Time
Civil Twilight
Nautical Twilight
Astronomical Twilight
Moon
Length of Visible Light
Length of Day
Tomorrow will be .
, % of the Moon is Illuminated

Today's Extremes

State Highs State Lows

Community

WunderPhotos

Upload Photos

1,852,272 photos uploaded!

WunderBlogs® & News

Nearby

Air Quality

  Air Quality AQ Index Pollutant
Not available.

Snow Depth

Station Depth Elevation

Earthquake Activity

City Distance Mag. Time & Date
Minimum magnitude displayed is 2.5.

Coastal Water Temperatures

Place Temperature

Stations

Nearby Weather Stations

Station Location Temp. Windchill Dew Point Humidity Wind Precip. Elev Updated Type